createdAt,value
2023-04-26T00:00:09.519Z,100972.34
2023-04-26T00:03:05.327Z,100978.50
2023-04-26T00:05:38.871Z,100971.41
2023-04-26T00:08:32.564Z,100974.91
2023-04-26T00:11:04.916Z,100978.72
2023-04-26T00:13:38.833Z,100973.19
2023-04-26T00:16:14.054Z,100974.59
2023-04-26T00:18:46.984Z,100977.25
2023-04-26T00:21:19.218Z,100978.50
2023-04-26T00:23:52.041Z,100978.22
2023-04-26T00:26:24.972Z,100974.00
2023-04-26T00:29:00.444Z,100978.69
2023-04-26T00:31:35.633Z,100973.09
2023-04-26T00:34:08.293Z,100979.69
2023-04-26T00:36:40.590Z,100982.03
2023-04-26T00:39:13.307Z,100981.09
2023-04-26T00:41:45.503Z,100978.91
2023-04-26T00:44:17.820Z,100978.38
2023-04-26T00:46:53.573Z,100982.13
2023-04-26T00:49:31.489Z,100977.38
2023-04-26T00:52:03.644Z,100981.34
2023-04-26T00:54:36.426Z,100978.09
2023-04-26T00:57:10.961Z,100981.22
2023-04-26T00:59:43.295Z,100981.72
2023-04-26T01:02:18.180Z,100984.09
2023-04-26T01:04:50.971Z,100979.84
2023-04-26T01:07:23.337Z,100985.06
2023-04-26T01:09:56.327Z,100982.84
2023-04-26T01:12:28.258Z,100991.66
2023-04-26T01:15:15.682Z,100986.34
2023-04-26T01:17:53.976Z,100987.09
2023-04-26T01:20:26.630Z,100994.56
2023-04-26T01:23:01.341Z,100996.81
2023-04-26T01:25:35.070Z,100993.16
2023-04-26T01:28:08.272Z,100997.56
2023-04-26T01:30:40.810Z,101000.44
2023-04-26T01:33:12.789Z,100999.16
2023-04-26T01:35:45.172Z,101013.72
2023-04-26T01:38:20.688Z,101011.50
2023-04-26T01:40:53.619Z,101016.59
2023-04-26T01:43:25.561Z,101019.19
2023-04-26T01:45:57.845Z,101003.16
2023-04-26T01:48:30.023Z,101009.63
2023-04-26T01:51:02.225Z,101018.97
2023-04-26T01:53:37.056Z,101015.06
2023-04-26T01:56:10.296Z,101015.16
2023-04-26T01:58:44.303Z,101017.50
2023-04-26T02:01:16.979Z,101014.22
2023-04-26T02:03:49.782Z,101019.84
2023-04-26T02:06:22.376Z,101012.19
2023-04-26T02:08:57.349Z,101011.59
2023-04-26T02:11:29.728Z,101017.63
2023-04-26T02:14:02.739Z,101020.81
2023-04-26T02:16:35.070Z,101015.63
2023-04-26T02:19:11.429Z,101013.63
2023-04-26T02:21:58.414Z,101011.47
2023-04-26T02:24:33.514Z,101022.66
2023-04-26T02:27:06.281Z,101013.84
2023-04-26T02:29:44.237Z,101016.81
2023-04-26T02:32:31.852Z,101013.41
2023-04-26T02:35:04.083Z,101010.69
2023-04-26T02:37:37.717Z,101013.41
2023-04-26T02:40:14.274Z,101007.25
2023-04-26T02:42:46.511Z,101005.03
2023-04-26T02:45:19.001Z,101003.88
2023-04-26T02:47:51.271Z,101008.75
2023-04-26T02:50:24.510Z,101009.19
2023-04-26T02:52:56.681Z,101006.63
2023-04-26T02:58:22.809Z,101008.34
2023-04-26T03:00:55.577Z,101002.38
2023-04-26T03:03:29.148Z,101001.00
2023-04-26T03:06:02.049Z,101011.44
2023-04-26T03:08:35.536Z,101006.63
2023-04-26T03:11:11.146Z,101007.41
2023-04-26T03:13:43.202Z,101009.06
2023-04-26T03:19:28.619Z,101008.16
2023-04-26T03:22:01.743Z,101015.91
2023-04-26T03:24:34.074Z,101010.25
2023-04-26T03:27:09.382Z,101014.19
2023-04-26T03:29:43.913Z,101015.34
2023-04-26T03:32:16.829Z,101019.81
2023-04-26T03:34:50.308Z,101025.13
2023-04-26T03:37:22.583Z,101022.78
2023-04-26T03:39:54.711Z,101024.19
2023-04-26T03:42:29.678Z,101024.28
2023-04-26T03:45:01.680Z,101029.69
2023-04-26T03:47:34.035Z,101032.25
2023-04-26T03:50:06.993Z,101027.88
2023-04-26T03:52:39.131Z,101028.50
2023-04-26T03:55:13.200Z,101032.63
2023-04-26T03:57:48.237Z,101031.38
2023-04-26T04:00:20.222Z,101034.25
2023-04-26T04:02:52.541Z,101040.41
2023-04-26T04:05:24.497Z,101034.44
2023-04-26T04:07:56.907Z,101040.72
2023-04-26T04:10:28.990Z,101041.88
2023-04-26T04:13:04.107Z,101044.78
2023-04-26T04:15:36.074Z,101041.66
2023-04-26T04:18:08.405Z,101038.06
2023-04-26T04:20:40.418Z,101045.72
2023-04-26T04:23:12.720Z,101040.63
2023-04-26T04:25:44.515Z,101045.31
2023-04-26T04:28:19.740Z,101044.34
2023-04-26T04:30:51.648Z,101049.00
2023-04-26T04:33:24.058Z,101052.53
2023-04-26T04:35:56.340Z,101054.22
2023-04-26T04:38:29.829Z,101052.31
2023-04-26T04:41:01.776Z,101056.84
2023-04-26T04:43:36.828Z,101068.44
2023-04-26T04:46:10.089Z,101061.22
2023-04-26T04:48:45.702Z,101062.72
2023-04-26T04:51:17.556Z,101069.38
2023-04-26T04:53:50.315Z,101067.78
2023-04-26T04:56:38.217Z,101073.66
2023-04-26T04:59:13.584Z,101071.28
2023-04-26T05:01:45.625Z,101065.75
2023-04-26T05:04:18.040Z,101080.00
2023-04-26T07:54:00.757Z,101160.59
2023-04-26T07:56:47.473Z,101161.97
2023-04-26T07:59:25.532Z,101163.00
2023-04-26T08:01:58.811Z,101168.78
2023-04-26T08:04:37.718Z,101158.78
2023-04-26T08:07:11.528Z,101161.94
2023-04-26T08:09:43.579Z,101166.84
2023-04-26T08:12:19.594Z,101168.16
2023-04-26T08:14:52.913Z,101171.06
2023-04-26T08:17:29.618Z,101176.00
2023-04-26T08:20:06.295Z,101174.34
2023-04-26T08:22:41.836Z,101169.38
2023-04-26T08:25:14.399Z,101170.25
2023-04-26T08:27:50.311Z,101165.09
2023-04-26T08:30:23.039Z,101169.63
2023-04-26T08:32:55.747Z,101171.91
2023-04-26T08:35:34.196Z,101166.50
2023-04-26T08:38:07.717Z,101175.72
2023-04-26T08:40:40.715Z,101172.66
2023-04-26T08:43:19.441Z,101175.88
2023-04-26T08:45:52.142Z,101190.34
2023-04-26T08:48:26.434Z,101176.56
2023-04-26T08:50:59.238Z,101186.53
2023-04-26T08:53:34.281Z,101178.22
2023-04-26T08:56:08.362Z,101174.28
2023-04-26T08:58:45.155Z,101174.06
2023-04-26T09:01:32.483Z,101176.97
2023-04-26T09:04:08.921Z,101174.53
2023-04-26T09:06:42.122Z,101183.72
2023-04-26T09:09:17.316Z,101182.78
2023-04-26T09:12:02.160Z,101183.91
2023-04-26T09:14:37.962Z,101181.22
2023-04-26T09:21:22.555Z,101173.44
2023-04-26T09:24:04.836Z,101185.00
2023-04-26T09:26:37.513Z,101180.78
2023-04-26T09:29:17.977Z,101186.25
2023-04-26T09:31:53.857Z,101180.06
2023-04-26T09:34:26.673Z,101182.03
2023-04-26T09:37:01.123Z,101183.31
2023-04-26T09:39:36.593Z,101181.38
2023-04-26T09:42:09.516Z,101185.06
2023-04-26T09:44:42.521Z,101186.13
2023-04-26T09:47:17.821Z,101197.53
2023-04-26T09:50:18.341Z,101172.88
2023-04-26T09:52:52.593Z,101169.56
2023-04-26T09:55:35.271Z,101177.69
2023-04-26T09:58:17.274Z,101173.16
2023-04-26T10:00:54.131Z,101176.09
2023-04-26T10:03:30.658Z,101182.94
2023-04-26T10:06:03.715Z,101179.50
2023-04-26T10:08:36.831Z,101168.38
2023-04-26T10:11:11.956Z,101176.75
2023-04-26T10:13:45.356Z,101176.31
2023-04-26T10:16:18.015Z,101180.22
2023-04-26T10:18:52.894Z,101171.03
2023-04-26T10:21:32.115Z,101174.47
2023-04-26T10:24:04.852Z,101179.03
2023-04-26T10:26:53.621Z,101172.47
2023-04-26T10:29:26.367Z,101181.50
2023-04-26T10:32:17.283Z,101182.34
2023-04-26T10:35:14.105Z,101188.44
2023-04-26T10:38:19.438Z,101193.78
2023-04-26T10:40:53.403Z,101193.47
2023-04-26T10:43:34.114Z,101184.56
2023-04-26T10:46:36.870Z,101187.13
2023-04-26T10:49:19.431Z,101185.47
2023-04-26T10:52:21.047Z,101192.78
2023-04-26T10:55:00.637Z,101192.50
2023-04-26T10:57:51.559Z,101188.63
2023-04-26T11:00:34.179Z,101187.88
2023-04-26T11:03:10.027Z,101197.88
2023-04-26T11:05:56.301Z,101188.25
2023-04-26T11:08:32.795Z,101188.50
2023-04-26T11:11:21.675Z,101207.25
2023-04-26T11:13:53.658Z,101200.56
2023-04-26T11:16:27.549Z,101196.22
2023-04-26T11:19:00.393Z,101188.97
2023-04-26T11:21:33.121Z,101186.22
2023-04-26T11:24:10.077Z,101192.00
2023-04-26T11:26:42.812Z,101186.22
2023-04-26T11:32:40.347Z,101182.44
2023-04-26T11:35:13.640Z,101189.78
2023-04-26T11:37:49.863Z,101187.25
2023-04-26T11:40:31.451Z,101194.91
2023-04-26T11:43:06.095Z,101197.13
2023-04-26T11:45:42.346Z,101201.31
2023-04-26T11:48:17.725Z,101194.41
2023-04-26T11:50:51.192Z,101196.91
2023-04-26T11:53:23.018Z,101195.91
2023-04-26T11:55:58.890Z,101198.84
2023-04-26T11:58:31.509Z,101197.41
2023-04-26T12:01:05.855Z,101200.91
2023-04-26T12:03:40.434Z,101199.00
2023-04-26T12:06:15.877Z,101206.06
2023-04-26T12:08:54.707Z,101197.50
2023-04-26T12:11:32.613Z,101198.59
2023-04-26T12:14:05.172Z,101190.75
2023-04-26T12:16:40.457Z,101196.00
2023-04-26T12:19:26.901Z,101195.31
2023-04-26T12:22:01.978Z,101196.31
2023-04-26T12:24:37.954Z,101208.38
2023-04-26T12:27:23.526Z,101205.69
2023-04-26T12:29:57.936Z,101210.78
2023-04-26T12:32:34.502Z,101206.91
2023-04-26T12:35:07.679Z,101205.06
2023-04-26T12:37:40.577Z,101214.81
2023-04-26T12:40:14.054Z,101208.56
2023-04-26T12:42:56.593Z,101205.03
2023-04-26T12:45:31.661Z,101207.59
2023-04-26T12:48:08.293Z,101208.44
2023-04-26T12:50:51.218Z,101212.50
2023-04-26T12:53:28.033Z,101200.09
2023-04-26T12:55:59.631Z,101205.56
2023-04-26T12:58:34.362Z,101202.19
2023-04-26T13:01:06.600Z,101200.97
2023-04-26T13:03:39.711Z,101196.53
2023-04-26T13:06:12.872Z,101193.81
2023-04-26T13:08:45.799Z,101189.28
2023-04-26T13:11:18.795Z,101192.81
2023-04-26T13:13:54.313Z,101196.78
2023-04-26T13:16:26.905Z,101202.47
2023-04-26T13:18:59.779Z,101199.81
2023-04-26T13:21:34.711Z,101197.53
2023-04-26T13:24:10.735Z,101197.22
2023-04-26T13:26:43.319Z,101195.94
2023-04-26T13:29:18.831Z,101199.19
2023-04-26T13:31:51.384Z,101198.03
2023-04-26T13:34:25.555Z,101196.31
2023-04-26T13:36:58.841Z,101202.47
2023-04-26T13:39:32.250Z,101206.75
2023-04-26T13:42:06.208Z,101204.94
2023-04-26T13:44:42.000Z,101203.59
2023-04-26T13:47:15.599Z,101208.69
2023-04-26T13:49:49.602Z,101215.09
2023-04-26T13:52:22.237Z,101223.78
2023-04-26T13:54:55.111Z,101213.94
2023-04-26T13:57:27.471Z,101203.97
2023-04-26T14:00:04.591Z,101217.19
2023-04-26T14:02:37.385Z,101199.06
2023-04-26T14:05:11.674Z,101211.38
2023-04-26T14:07:44.950Z,101209.75
2023-04-26T14:10:17.618Z,101212.72
2023-04-26T14:12:50.062Z,101217.91
2023-04-26T14:15:41.373Z,101229.53
2023-04-26T14:18:14.110Z,101218.69
2023-04-26T14:20:47.217Z,101223.44
2023-04-26T14:23:19.341Z,101225.16
2023-04-26T14:25:58.225Z,101215.59
2023-04-26T14:28:32.617Z,101211.44
2023-04-26T14:31:07.991Z,101211.59
2023-04-26T14:33:40.989Z,101216.19
2023-04-26T14:36:13.707Z,101210.09
2023-04-26T14:38:47.416Z,101220.16
2023-04-26T14:41:20.653Z,101215.09
2023-04-26T14:43:53.937Z,101223.50
2023-04-26T14:46:29.807Z,101218.69
2023-04-26T14:49:03.105Z,101213.13
2023-04-26T14:51:36.137Z,101206.31
2023-04-26T14:54:09.377Z,101212.03
2023-04-26T14:56:59.178Z,101215.94
2023-04-26T14:59:32.376Z,101215.47
2023-04-26T15:02:08.381Z,101217.84
2023-04-26T15:04:41.892Z,101214.78
2023-04-26T15:07:24.930Z,101215.34
2023-04-26T15:10:05.418Z,101224.25
2023-04-26T15:12:38.580Z,101214.66
2023-04-26T15:15:12.668Z,101215.56
2023-04-26T15:17:48.244Z,101216.34
2023-04-26T15:20:21.670Z,101205.72
2023-04-26T15:22:54.341Z,101212.53
2023-04-26T15:25:27.947Z,101208.59
2023-04-26T15:28:00.977Z,101216.81
2023-04-26T15:30:34.295Z,101214.38
2023-04-26T15:33:10.947Z,101208.56
2023-04-26T15:35:44.097Z,101220.97
2023-04-26T15:38:17.140Z,101216.25
2023-04-26T15:40:51.251Z,101206.59
2023-04-26T15:43:24.261Z,101218.34
2023-04-26T15:45:57.624Z,101212.63
2023-04-26T15:48:33.261Z,101218.69
2023-04-26T15:51:09.091Z,101217.38
2023-04-26T15:53:43.855Z,101216.91
2023-04-26T15:56:18.979Z,101210.88
2023-04-26T15:58:52.301Z,101221.09
2023-04-26T16:01:25.269Z,101219.47
2023-04-26T16:04:00.800Z,101220.16
2023-04-26T16:06:38.640Z,101227.63
2023-04-26T16:09:24.952Z,101220.59
2023-04-26T16:11:59.724Z,101224.41
2023-04-26T16:14:34.278Z,101230.38
2023-04-26T16:17:07.345Z,101232.84
2023-04-26T16:19:49.526Z,101232.03
2023-04-26T16:22:24.671Z,101242.41
2023-04-26T16:25:00.130Z,101236.03
2023-04-26T16:27:36.973Z,101234.91
2023-04-26T16:30:13.596Z,101238.00
2023-04-26T16:32:46.416Z,101229.72
2023-04-26T16:35:21.975Z,101220.53
2023-04-26T16:37:56.894Z,101231.94
2023-04-26T16:40:31.558Z,101231.66
2023-04-26T16:43:42.810Z,101227.13
2023-04-26T16:46:21.176Z,101229.69
2023-04-26T16:48:57.278Z,101227.19
2023-04-26T16:51:32.801Z,101227.72
2023-04-26T16:54:05.592Z,101227.72
2023-04-26T16:56:38.355Z,101231.09
2023-04-26T16:59:12.551Z,101234.63
2023-04-26T17:01:45.200Z,101232.22
2023-04-26T17:04:18.735Z,101235.78
2023-04-26T17:06:55.032Z,101230.66
2023-04-26T17:09:28.120Z,101231.19
2023-04-26T17:12:03.522Z,101236.28
2023-04-26T17:14:36.604Z,101241.78
2023-04-26T17:17:08.852Z,101245.13
2023-04-26T17:19:42.387Z,101241.78
2023-04-26T17:22:18.705Z,101241.81
2023-04-26T17:24:53.369Z,101245.81
2023-04-26T17:27:27.526Z,101249.78
2023-04-26T17:30:00.728Z,101255.41
2023-04-26T17:32:34.025Z,101257.13
2023-04-26T17:35:08.134Z,101253.00
2023-04-26T17:37:46.927Z,101255.44
2023-04-26T17:40:21.000Z,101253.03
2023-04-26T17:42:54.229Z,101267.13
2023-04-26T17:45:28.355Z,101248.22
2023-04-26T17:48:00.646Z,101255.25
2023-04-26T17:50:33.651Z,101262.16
2023-04-26T17:53:09.877Z,101256.78
2023-04-26T17:55:48.588Z,101265.41
2023-04-26T17:58:21.579Z,101274.41
2023-04-26T18:00:57.750Z,101271.97
2023-04-26T18:03:32.369Z,101275.75
2023-04-26T18:06:06.276Z,101276.03
2023-04-26T18:08:50.324Z,101282.97
2023-04-26T18:11:27.524Z,101277.56
2023-04-26T18:14:00.184Z,101274.03
2023-04-26T18:16:33.054Z,101284.19
2023-04-26T18:19:06.925Z,101282.63
2023-04-26T18:21:43.674Z,101282.13
2023-04-26T18:24:18.584Z,101279.31
2023-04-26T18:26:51.965Z,101287.31
2023-04-26T18:29:24.432Z,101291.09
2023-04-26T18:31:57.317Z,101290.69
2023-04-26T18:34:30.145Z,101297.56
2023-04-26T18:37:03.277Z,101298.84
2023-04-26T18:39:38.914Z,101301.97
2023-04-26T18:42:12.899Z,101305.56
2023-04-26T18:44:45.764Z,101311.19
2023-04-26T18:47:18.733Z,101311.47
2023-04-26T18:49:51.570Z,101311.06
2023-04-26T18:52:24.304Z,101312.09
2023-04-26T18:55:00.848Z,101313.19
2023-04-26T18:57:33.453Z,101319.25
2023-04-26T19:00:07.005Z,101319.97
2023-04-26T19:02:41.603Z,101320.84
2023-04-26T19:05:15.153Z,101319.38
2023-04-26T19:07:49.088Z,101324.19
2023-04-26T19:10:24.926Z,101327.91
2023-04-26T19:12:58.214Z,101320.97
2023-04-26T19:15:31.714Z,101327.38
2023-04-26T19:18:06.341Z,101333.63
2023-04-26T19:20:38.987Z,101332.34
2023-04-26T19:23:13.336Z,101334.09
2023-04-26T19:25:48.791Z,101330.84
2023-04-26T19:28:21.611Z,101330.69
2023-04-26T19:30:56.453Z,101335.31
2023-04-26T19:33:30.928Z,101336.84
2023-04-26T19:36:03.649Z,101336.25
2023-04-26T19:38:38.457Z,101342.53
2023-04-26T19:41:14.673Z,101332.75
2023-04-26T19:43:48.218Z,101345.94
2023-04-26T19:46:21.479Z,101352.53
2023-04-26T19:48:56.952Z,101347.78
2023-04-26T19:51:29.754Z,101349.44
2023-04-26T19:54:03.369Z,101349.88
2023-04-26T19:56:39.129Z,101353.97
2023-04-26T19:59:14.190Z,101350.81
2023-04-26T20:01:46.682Z,101352.00
2023-04-26T20:04:22.505Z,101348.66
2023-04-26T20:06:55.199Z,101355.88
2023-04-26T20:09:28.129Z,101354.88
2023-04-26T20:12:05.428Z,101357.69
2023-04-26T20:14:38.091Z,101366.81
2023-04-26T20:17:14.968Z,101359.16
2023-04-26T20:19:51.758Z,101357.19
2023-04-26T20:22:24.033Z,101364.63
2023-04-26T20:24:56.602Z,101357.63
2023-04-26T20:27:32.688Z,101368.31
2023-04-26T20:30:06.659Z,101367.06
2023-04-26T20:32:39.849Z,101368.06
2023-04-26T20:35:14.247Z,101368.53
2023-04-26T20:37:46.853Z,101371.31
2023-04-26T20:40:22.534Z,101372.41
2023-04-26T20:42:59.266Z,101372.41
2023-04-26T20:45:32.376Z,101368.06
2023-04-26T20:48:05.124Z,101365.38
2023-04-26T20:50:38.603Z,101370.59
2023-04-26T20:53:13.166Z,101367.81
2023-04-26T20:55:46.499Z,101370.13
2023-04-26T20:58:21.288Z,101366.59
2023-04-26T21:01:07.805Z,101368.56
2023-04-26T21:09:27.753Z,101365.31
2023-04-26T21:12:02.578Z,101372.97
2023-04-26T21:14:52.568Z,101365.91
2023-04-26T21:17:26.947Z,101363.69
2023-04-26T21:20:01.929Z,101367.69
2023-04-26T21:22:35.325Z,101366.47
2023-04-26T21:25:10.011Z,101376.34
2023-04-26T21:27:43.851Z,101369.75
2023-04-26T21:30:39.730Z,101365.13
2023-04-26T21:33:16.511Z,101374.22
2023-04-26T21:36:16.845Z,101368.75
2023-04-26T21:45:00.023Z,101374.75
2023-04-26T21:48:03.100Z,101380.81
2023-04-26T21:53:56.173Z,101379.75
2023-04-26T21:56:29.970Z,101379.50
2023-04-26T21:59:16.150Z,101384.84
2023-04-26T22:01:57.272Z,101382.78
2023-04-26T22:04:37.892Z,101384.03
2023-04-26T22:07:20.029Z,101386.66
2023-04-26T22:10:05.050Z,101384.00
2023-04-26T22:12:41.016Z,101384.56
2023-04-26T22:15:15.808Z,101398.06
2023-04-26T22:17:56.626Z,101393.59
2023-04-26T22:20:34.749Z,101396.84
2023-04-26T22:23:10.926Z,101401.56
2023-04-26T22:25:48.145Z,101403.94
2023-04-26T22:28:21.907Z,101404.97
2023-04-26T22:31:09.371Z,101400.66
2023-04-26T22:34:13.540Z,101409.56
2023-04-26T22:37:33.269Z,101419.50
2023-04-26T22:40:10.378Z,101420.22
2023-04-26T22:42:45.292Z,101429.38
2023-04-26T22:45:17.900Z,101420.78
2023-04-26T22:47:51.293Z,101425.16
2023-04-26T22:50:24.230Z,101437.69
2023-04-26T22:53:01.209Z,101422.03
2023-04-26T22:55:35.605Z,101424.78
2023-04-26T22:58:14.586Z,101426.56
2023-04-26T23:00:48.798Z,101429.50
2023-04-26T23:03:22.852Z,101428.59
2023-04-26T23:05:56.231Z,101438.19
2023-04-26T23:08:34.227Z,101432.09
2023-04-26T23:11:12.070Z,101436.34
2023-04-26T23:13:45.289Z,101435.25
2023-04-26T23:16:18.452Z,101436.84
2023-04-26T23:18:56.029Z,101437.81
2023-04-26T23:21:30.851Z,101440.72
2023-04-26T23:24:08.248Z,101441.22
2023-04-26T23:26:41.868Z,101446.44
2023-04-26T23:29:18.713Z,101446.56
2023-04-26T23:32:01.429Z,101449.97
2023-04-26T23:34:34.230Z,101444.13
2023-04-26T23:37:07.728Z,101446.56
2023-04-26T23:39:44.628Z,101439.03
2023-04-26T23:42:17.089Z,101443.91
2023-04-26T23:44:53.532Z,101443.56
2023-04-26T23:47:32.434Z,101437.09
2023-04-26T23:50:07.833Z,101443.56
2023-04-26T23:52:40.694Z,101438.69
2023-04-26T23:55:17.833Z,101433.94
2023-04-26T23:58:01.681Z,101433.69
